sensor_id;sensor_type;location;lat;lon;timestamp;pressure;altitude;pressure_sealevel;temperature;humidity
75414;BME280;64758;52.122;5.404;2023-03-01T00:01:05;103484.16;;;-2.07;88.23
75414;BME280;64758;52.122;5.404;2023-03-01T00:03:33;103487.72;;;-2.10;88.23
75414;BME280;64758;52.122;5.404;2023-03-01T00:06:00;103488.53;;;-2.09;88.97
75414;BME280;64758;52.122;5.404;2023-03-01T00:08:27;103486.66;;;-2.03;88.46
75414;BME280;64758;52.122;5.404;2023-03-01T00:11:09;103487.66;;;-2.08;88.53
75414;BME280;64758;52.122;5.404;2023-03-01T00:13:36;103493.66;;;-2.06;89.06
75414;BME280;64758;52.122;5.404;2023-03-01T00:16:10;103484.28;;;-2.12;89.55
75414;BME280;64758;52.122;5.404;2023-03-01T00:18:37;103496.34;;;-2.08;88.68
75414;BME280;64758;52.122;5.404;2023-03-01T00:21:04;103487.72;;;-2.11;89.55
75414;BME280;64758;52.122;5.404;2023-03-01T00:23:33;103499.81;;;-2.09;88.72
75414;BME280;64758;52.122;5.404;2023-03-01T00:26:00;103483.47;;;-2.14;88.91
75414;BME280;64758;52.122;5.404;2023-03-01T00:28:27;103484.44;;;-2.18;88.92
75414;BME280;64758;52.122;5.404;2023-03-01T00:30:53;103483.63;;;-2.20;89.75
75414;BME280;64758;52.122;5.404;2023-03-01T00:33:20;103478.59;;;-2.26;89.74
75414;BME280;64758;52.122;5.404;2023-03-01T00:35:46;103478.50;;;-2.23;89.80
75414;BME280;64758;52.122;5.404;2023-03-01T00:38:13;103464.78;;;-2.28;90.25
75414;BME280;64758;52.122;5.404;2023-03-01T00:40:39;103478.50;;;-2.23;90.80
75414;BME280;64758;52.122;5.404;2023-03-01T00:43:06;103473.41;;;-2.26;90.46
75414;BME280;64758;52.122;5.404;2023-03-01T00:45:33;103476.97;;;-2.30;90.63
75414;BME280;64758;52.122;5.404;2023-03-01T00:47:59;103473.56;;;-2.32;90.37
75414;BME280;64758;52.122;5.404;2023-03-01T00:50:26;103478.75;;;-2.32;90.63
75414;BME280;64758;52.122;5.404;2023-03-01T00:52:56;103484.88;;;-2.34;90.58
75414;BME280;64758;52.122;5.404;2023-03-01T00:55:22;103477.13;;;-2.36;91.27
75414;BME280;64758;52.122;5.404;2023-03-01T00:57:49;103475.44;;;-2.38;91.48
75414;BME280;64758;52.122;5.404;2023-03-01T01:00:16;103462.50;;;-2.40;90.94
75414;BME280;64758;52.122;5.404;2023-03-01T01:02:43;103466.88;;;-2.42;90.83
75414;BME280;64758;52.122;5.404;2023-03-01T01:05:09;103471.13;;;-2.39;92.07
75414;BME280;64758;52.122;5.404;2023-03-01T01:07:36;103465.16;;;-2.43;91.14
75414;BME280;64758;52.122;5.404;2023-03-01T01:10:03;103465.16;;;-2.43;91.56
75414;BME280;64758;52.122;5.404;2023-03-01T01:12:30;103453.97;;;-2.46;91.88
75414;BME280;64758;52.122;5.404;2023-03-01T01:14:57;103457.44;;;-2.46;91.88
75414;BME280;64758;52.122;5.404;2023-03-01T01:17:23;103441.84;;;-2.46;91.71
75414;BME280;64758;52.122;5.404;2023-03-01T01:19:50;103437.38;;;-2.41;92.16
75414;BME280;64758;52.122;5.404;2023-03-01T01:22:17;103444.22;;;-2.38;92.46
75414;BME280;64758;52.122;5.404;2023-03-01T01:24:43;103440.88;;;-2.42;92.11
75414;BME280;64758;52.122;5.404;2023-03-01T01:27:09;103440.06;;;-2.44;91.93
75414;BME280;64758;52.122;5.404;2023-03-01T01:29:36;103436.59;;;-2.44;91.91
75414;BME280;64758;52.122;5.404;2023-03-01T01:32:04;103433.16;;;-2.45;91.60
75414;BME280;64758;52.122;5.404;2023-03-01T01:34:31;103429.66;;;-2.44;91.93
75414;BME280;64758;52.122;5.404;2023-03-01T01:36:57;103428.84;;;-2.46;92.56
75414;BME280;64758;52.122;5.404;2023-03-01T01:39:28;103423.72;;;-2.49;91.95
75414;BME280;64758;52.122;5.404;2023-03-01T01:41:55;103436.63;;;-2.46;92.37
75414;BME280;64758;52.122;5.404;2023-03-01T01:44:26;103433.31;;;-2.52;92.01
75414;BME280;64758;52.122;5.404;2023-03-01T01:46:56;103428.25;;;-2.55;92.45
75414;BME280;64758;52.122;5.404;2023-03-01T01:49:36;103432.56;;;-2.55;92.94
75414;BME280;64758;52.122;5.404;2023-03-01T01:52:18;103428.25;;;-2.55;92.42
75414;BME280;64758;52.122;5.404;2023-03-01T01:54:51;103429.06;;;-2.54;92.07
75414;BME280;64758;52.122;5.404;2023-03-01T01:57:41;103429.16;;;-2.57;92.23
75414;BME280;64758;52.122;5.404;2023-03-01T02:00:13;103428.34;;;-2.59;92.67
75414;BME280;64758;52.122;5.404;2023-03-01T02:02:40;103420.63;;;-2.62;92.71
75414;BME280;64758;52.122;5.404;2023-03-01T02:05:14;103411.25;;;-2.68;93.08
75414;BME280;64758;52.122;5.404;2023-03-01T02:07:44;103413.69;;;-2.63;93.46
75414;BME280;64758;52.122;5.404;2023-03-01T02:10:11;103413.75;;;-2.65;92.68
75414;BME280;64758;52.122;5.404;2023-03-01T02:12:38;103407.91;;;-2.73;92.58
75414;BME280;64758;52.122;5.404;2023-03-01T02:15:06;103413.94;;;-2.72;93.34
75414;BME280;64758;52.122;5.404;2023-03-01T02:17:33;103413.19;;;-2.77;93.32
75414;BME280;64758;52.122;5.404;2023-03-01T02:22:36;103409.75;;;-2.78;93.11
75414;BME280;64758;52.122;5.404;2023-03-01T02:30:30;103411.50;;;-2.78;93.56
75414;BME280;64758;52.122;5.404;2023-03-01T02:33:00;103408.00;;;-2.77;93.73
75414;BME280;64758;52.122;5.404;2023-03-01T02:35:32;103403.66;;;-2.77;93.73
75414;BME280;64758;52.122;5.404;2023-03-01T02:38:00;103404.56;;;-2.78;93.77
75414;BME280;64758;52.122;5.404;2023-03-01T02:40:33;103395.09;;;-2.80;93.58
75414;BME280;64758;52.122;5.404;2023-03-01T02:43:00;103389.88;;;-2.80;93.91
75414;BME280;64758;52.122;5.404;2023-03-01T02:45:27;103394.25;;;-2.81;93.96
75414;BME280;64758;52.122;5.404;2023-03-01T02:47:54;103388.25;;;-2.84;93.75
75414;BME280;64758;52.122;5.404;2023-03-01T02:55:45;103374.44;;;-2.86;94.07
75414;BME280;64758;52.122;5.404;2023-03-01T02:58:11;103383.06;;;-2.84;94.10
75414;BME280;64758;52.122;5.404;2023-03-01T03:00:40;103385.72;;;-2.87;93.88
75414;BME280;64758;52.122;5.404;2023-03-01T03:03:17;103377.97;;;-2.89;94.33
75414;BME280;64758;52.122;5.404;2023-03-01T03:05:46;103377.91;;;-2.86;94.17
75414;BME280;64758;52.122;5.404;2023-03-01T03:08:14;103384.03;;;-2.88;94.09
75414;BME280;64758;52.122;5.404;2023-03-01T03:10:50;103371.19;;;-2.94;94.26
75414;BME280;64758;52.122;5.404;2023-03-01T03:13:17;103370.28;;;-2.93;94.70
75414;BME280;64758;52.122;5.404;2023-03-01T03:15:44;103372.88;;;-2.93;94.33
75414;BME280;64758;52.122;5.404;2023-03-01T03:18:14;103383.34;;;-2.96;94.54
75414;BME280;64758;52.122;5.404;2023-03-01T03:20:42;103373.84;;;-2.96;94.27
75414;BME280;64758;52.122;5.404;2023-03-01T03:23:09;103364.28;;;-2.95;94.67
75414;BME280;64758;52.122;5.404;2023-03-01T03:25:35;103365.00;;;-2.89;94.72
75414;BME280;64758;52.122;5.404;2023-03-01T03:28:05;103359.88;;;-2.93;94.51
75414;BME280;64758;52.122;5.404;2023-03-01T03:30:38;103362.56;;;-2.96;93.92
75414;BME280;64758;52.122;5.404;2023-03-01T03:33:08;103365.16;;;-2.96;94.39
75414;BME280;64758;52.122;5.404;2023-03-01T03:35:42;103367.03;;;-3.01;94.19
75414;BME280;64758;52.122;5.404;2023-03-01T03:38:10;103364.44;;;-3.01;94.35
75414;BME280;64758;52.122;5.404;2023-03-01T03:40:47;103370.53;;;-3.02;93.96
75414;BME280;64758;52.122;5.404;2023-03-01T03:43:19;103363.75;;;-3.08;94.08
75414;BME280;64758;52.122;5.404;2023-03-01T03:45:48;103366.28;;;-3.06;93.76
75414;BME280;64758;52.122;5.404;2023-03-01T03:48:15;103368.00;;;-3.05;94.04
75414;BME280;64758;52.122;5.404;2023-03-01T03:50:48;103363.63;;;-3.03;93.89
75414;BME280;64758;52.122;5.404;2023-03-01T03:53:15;103357.66;;;-3.07;93.53
75414;BME280;64758;52.122;5.404;2023-03-01T03:55:42;103350.75;;;-3.08;93.38
75414;BME280;64758;52.122;5.404;2023-03-01T03:58:11;103342.22;;;-3.13;93.70
75414;BME280;64758;52.122;5.404;2023-03-01T04:00:40;103341.41;;;-3.15;92.99
75414;BME280;64758;52.122;5.404;2023-03-01T04:03:09;103350.00;;;-3.13;93.13
75414;BME280;64758;52.122;5.404;2023-03-01T04:05:37;103357.00;;;-3.16;93.58
75414;BME280;64758;52.122;5.404;2023-03-01T04:08:05;103359.59;;;-3.16;92.57
75414;BME280;64758;52.122;5.404;2023-03-01T04:10:46;103357.97;;;-3.19;93.37
75414;BME280;64758;52.122;5.404;2023-03-01T04:13:16;103360.56;;;-3.19;93.64
75414;BME280;64758;52.122;5.404;2023-03-01T04:15:47;103364.94;;;-3.22;93.37
75414;BME280;64758;52.122;5.404;2023-03-01T04:18:16;103363.31;;;-3.25;92.71
75414;BME280;64758;52.122;5.404;2023-03-01T04:20:45;103361.69;;;-3.30;93.10
75414;BME280;64758;52.122;5.404;2023-03-01T04:23:16;103352.13;;;-3.28;93.34
75414;BME280;64758;52.122;5.404;2023-03-01T04:25:51;103359.97;;;-3.31;92.67
75414;BME280;64758;52.122;5.404;2023-03-01T04:28:30;103370.38;;;-3.31;93.17
75414;BME280;64758;52.122;5.404;2023-03-01T04:30:58;103367.09;;;-3.39;92.90
75414;BME280;64758;52.122;5.404;2023-03-01T04:33:25;103365.44;;;-3.42;93.29
75414;BME280;64758;52.122;5.404;2023-03-01T04:35:52;103372.38;;;-3.42;93.52
75414;BME280;64758;52.122;5.404;2023-03-01T04:38:19;103366.34;;;-3.44;93.78
75414;BME280;64758;52.122;5.404;2023-03-01T04:40:47;103363.75;;;-3.44;93.74
75414;BME280;64758;52.122;5.404;2023-03-01T04:43:14;103368.13;;;-3.45;93.22
75414;BME280;64758;52.122;5.404;2023-03-01T04:45:41;103358.63;;;-3.47;93.14
75414;BME280;64758;52.122;5.404;2023-03-01T04:48:08;103357.75;;;-3.46;93.77
75414;BME280;64758;52.122;5.404;2023-03-01T04:50:35;103351.81;;;-3.51;93.78
75414;BME280;64758;52.122;5.404;2023-03-01T04:53:01;103349.19;;;-3.51;93.92
75414;BME280;64758;52.122;5.404;2023-03-01T04:55:28;103338.06;;;-3.55;93.91
75414;BME280;64758;52.122;5.404;2023-03-01T04:57:55;103332.06;;;-3.58;94.28
75414;BME280;64758;52.122;5.404;2023-03-01T05:00:22;103339.03;;;-3.60;93.97
75414;BME280;64758;52.122;5.404;2023-03-01T05:03:09;103333.09;;;-3.65;94.60
75414;BME280;64758;52.122;5.404;2023-03-01T05:05:37;103327.06;;;-3.66;94.08
75414;BME280;64758;52.122;5.404;2023-03-01T05:08:07;103317.59;;;-3.68;94.08
75414;BME280;64758;52.122;5.404;2023-03-01T05:10:35;103321.94;;;-3.69;94.99
75414;BME280;64758;52.122;5.404;2023-03-01T05:13:03;103314.09;;;-3.67;94.71
75414;BME280;64758;52.122;5.404;2023-03-01T05:15:31;103322.72;;;-3.65;94.54
75414;BME280;64758;52.122;5.404;2023-03-01T05:17:59;103311.56;;;-3.70;94.06
75414;BME280;64758;52.122;5.404;2023-03-01T05:20:29;103317.66;;;-3.71;94.46
75414;BME280;64758;52.122;5.404;2023-03-01T05:22:58;103298.59;;;-3.70;94.19
75414;BME280;64758;52.122;5.404;2023-03-01T05:25:26;103308.09;;;-3.69;94.87
75414;BME280;64758;52.122;5.404;2023-03-01T05:27:53;103298.59;;;-3.70;94.06
75414;BME280;64758;52.122;5.404;2023-03-01T05:30:19;103300.44;;;-3.74;94.58
75414;BME280;64758;52.122;5.404;2023-03-01T05:32:48;103284.09;;;-3.78;94.88
75414;BME280;64758;52.122;5.404;2023-03-01T05:35:17;103299.69;;;-3.78;94.20
75414;BME280;64758;52.122;5.404;2023-03-01T05:37:46;103287.72;;;-3.84;94.17
75414;BME280;64758;52.122;5.404;2023-03-01T05:40:16;103298.09;;;-3.84;94.22
75414;BME280;64758;52.122;5.404;2023-03-01T05:42:50;103286.97;;;-3.89;94.63
75414;BME280;64758;52.122;5.404;2023-03-01T05:45:18;103280.13;;;-3.93;94.78
75414;BME280;64758;52.122;5.404;2023-03-01T05:47:46;103281.84;;;-3.92;94.06
75414;BME280;64758;52.122;5.404;2023-03-01T05:50:24;103288.75;;;-3.91;94.30
75414;BME280;64758;52.122;5.404;2023-03-01T05:53:05;103272.44;;;-3.97;94.93
75414;BME280;64758;52.122;5.404;2023-03-01T05:55:35;103278.44;;;-3.94;94.51
75414;BME280;64758;52.122;5.404;2023-03-01T05:58:10;103276.72;;;-3.95;94.53
75414;BME280;64758;52.122;5.404;2023-03-01T06:00:37;103277.59;;;-3.96;94.33
75414;BME280;64758;52.122;5.404;2023-03-01T06:03:04;103275.03;;;-3.97;95.08
75414;BME280;64758;52.122;5.404;2023-03-01T06:05:30;103280.28;;;-3.99;94.08
75414;BME280;64758;52.122;5.404;2023-03-01T06:08:00;103273.41;;;-4.01;94.75
75414;BME280;64758;52.122;5.404;2023-03-01T06:10:27;103263.00;;;-4.00;93.98
75414;BME280;64758;52.122;5.404;2023-03-01T06:12:54;103270.59;;;-3.92;95.06
75414;BME280;64758;52.122;5.404;2023-03-01T06:15:21;103275.00;;;-3.96;94.35
75414;BME280;64758;52.122;5.404;2023-03-01T06:17:48;103273.38;;;-4.00;94.56
75414;BME280;64758;52.122;5.404;2023-03-01T06:20:23;103269.97;;;-4.02;94.39
75414;BME280;64758;52.122;5.404;2023-03-01T06:22:50;103287.09;;;-3.95;94.09
75414;BME280;64758;52.122;5.404;2023-03-01T06:25:22;103281.94;;;-3.96;93.75
75414;BME280;64758;52.122;5.404;2023-03-01T06:27:50;103274.22;;;-3.99;94.43
75414;BME280;64758;52.122;5.404;2023-03-01T06:30:20;103276.81;;;-3.99;94.22
75414;BME280;64758;52.122;5.404;2023-03-01T06:32:46;103275.03;;;-3.97;93.71
75414;BME280;64758;52.122;5.404;2023-03-01T06:35:15;103285.41;;;-3.97;93.26
75414;BME280;64758;52.122;5.404;2023-03-01T06:37:45;103288.81;;;-3.94;93.47
75414;BME280;64758;52.122;5.404;2023-03-01T06:40:12;103284.56;;;-3.98;93.55
75414;BME280;64758;52.122;5.404;2023-03-01T06:42:42;103282.81;;;-3.97;93.43
75414;BME280;64758;52.122;5.404;2023-03-01T06:45:09;103288.81;;;-3.94;93.74
75414;BME280;64758;52.122;5.404;2023-03-01T06:47:36;103280.97;;;-3.91;94.06
75414;BME280;64758;52.122;5.404;2023-03-01T06:50:03;103290.38;;;-3.87;93.40
75414;BME280;64758;52.122;5.404;2023-03-01T06:52:29;103291.19;;;-3.85;93.59
75414;BME280;64758;52.122;5.404;2023-03-01T06:54:56;103286.81;;;-3.83;94.01
75414;BME280;64758;52.122;5.404;2023-03-01T06:57:22;103279.72;;;-3.77;93.77
75414;BME280;64758;52.122;5.404;2023-03-01T06:59:49;103280.53;;;-3.75;93.93
75414;BME280;64758;52.122;5.404;2023-03-01T07:02:15;103266.63;;;-3.72;94.40
75414;BME280;64758;52.122;5.404;2023-03-01T07:04:42;103269.06;;;-3.66;94.53
75414;BME280;64758;52.122;5.404;2023-03-01T07:07:09;103273.38;;;-3.64;93.92
75414;BME280;64758;52.122;5.404;2023-03-01T07:09:35;103280.13;;;-3.57;94.17
75414;BME280;64758;52.122;5.404;2023-03-01T07:12:02;103264.53;;;-3.57;94.01
75414;BME280;64758;52.122;5.404;2023-03-01T07:14:29;103278.19;;;-3.49;94.11
75414;BME280;64758;52.122;5.404;2023-03-01T07:16:55;103271.97;;;-3.43;93.83
75414;BME280;64758;52.122;5.404;2023-03-01T07:19:22;103279.59;;;-3.36;94.06
75414;BME280;64758;52.122;5.404;2023-03-01T07:21:49;103271.66;;;-3.31;93.66
75414;BME280;64758;52.122;5.404;2023-03-01T07:24:15;103282.88;;;-3.29;93.42
75414;BME280;64758;52.122;5.404;2023-03-01T07:26:42;103276.75;;;-3.27;93.50
75414;BME280;64758;52.122;5.404;2023-03-01T07:29:10;103274.81;;;-3.19;94.04
75414;BME280;64758;52.122;5.404;2023-03-01T07:31:37;103287.50;;;-3.08;93.92
75414;BME280;64758;52.122;5.404;2023-03-01T07:34:03;103281.25;;;-3.01;94.20
75414;BME280;64758;52.122;5.404;2023-03-01T07:36:30;103281.84;;;-2.90;93.86
75414;BME280;64758;52.122;5.404;2023-03-01T07:38:57;103283.50;;;-2.88;94.14
75414;BME280;64758;52.122;5.404;2023-03-01T07:41:24;103291.88;;;-2.77;94.09
75414;BME280;64758;52.122;5.404;2023-03-01T07:43:51;103287.44;;;-2.73;94.87
75414;BME280;64758;52.122;5.404;2023-03-01T07:46:17;103298.38;;;-2.62;94.72
75414;BME280;64758;52.122;5.404;2023-03-01T07:48:45;103295.63;;;-2.56;95.58
75414;BME280;64758;52.122;5.404;2023-03-01T07:51:13;103296.09;;;-2.43;95.57
75414;BME280;64758;52.122;5.404;2023-03-01T07:53:40;103295.66;;;-2.29;95.32
75414;BME280;64758;52.122;5.404;2023-03-01T07:56:09;103288.41;;;-2.18;95.93
75414;BME280;64758;52.122;5.404;2023-03-01T07:58:38;103299.94;;;-1.98;96.60
75414;BME280;64758;52.122;5.404;2023-03-01T08:01:06;103305.69;;;-1.87;96.08
75414;BME280;64758;52.122;5.404;2023-03-01T08:03:33;103287.16;;;-1.78;97.03
75414;BME280;64758;52.122;5.404;2023-03-01T08:06:04;103291.88;;;-1.63;96.02
75414;BME280;64758;52.122;5.404;2023-03-01T08:08:32;103292.41;;;-1.52;96.47
75414;BME280;64758;52.122;5.404;2023-03-01T08:11:00;103284.03;;;-1.35;97.03
75414;BME280;64758;52.122;5.404;2023-03-01T08:13:27;103280.84;;;-1.19;96.94
75414;BME280;64758;52.122;5.404;2023-03-01T08:15:54;103281.13;;;-1.02;96.55
75414;BME280;64758;52.122;5.404;2023-03-01T08:18:21;103280.53;;;-0.86;97.36
75414;BME280;64758;52.122;5.404;2023-03-01T08:20:47;103283.50;;;-0.72;96.53
75414;BME280;64758;52.122;5.404;2023-03-01T08:23:14;103270.75;;;-0.56;96.78
75414;BME280;64758;52.122;5.404;2023-03-01T08:25:41;103279.72;;;-0.40;96.08
75414;BME280;64758;52.122;5.404;2023-03-01T08:28:07;103278.25;;;-0.24;96.00
75414;BME280;64758;52.122;5.404;2023-03-01T08:30:34;103276.88;;;-0.11;95.70
75414;BME280;64758;52.122;5.404;2023-03-01T08:33:00;103274.69;;;-0.01;95.16
75414;BME280;64758;52.122;5.404;2023-03-01T08:35:27;103264.81;;;0.07;95.03
75414;BME280;64758;52.122;5.404;2023-03-01T08:37:54;103271.91;;;0.25;93.88
75414;BME280;64758;52.122;5.404;2023-03-01T08:40:20;103265.22;;;0.40;92.47
75414;BME280;64758;52.122;5.404;2023-03-01T08:42:47;103260.22;;;0.55;91.47
75414;BME280;64758;52.122;5.404;2023-03-01T08:45:13;103257.88;;;0.69;90.74
75414;BME280;64758;52.122;5.404;2023-03-01T08:47:44;103260.81;;;0.82;89.79
75414;BME280;64758;52.122;5.404;2023-03-01T08:50:11;103259.25;;;0.98;89.60
75414;BME280;64758;52.122;5.404;2023-03-01T08:52:38;103246.66;;;1.07;87.89
75414;BME280;64758;52.122;5.404;2023-03-01T08:55:04;103241.56;;;1.23;87.45
75414;BME280;64758;52.122;5.404;2023-03-01T08:57:31;103243.50;;;1.37;86.50
75414;BME280;64758;52.122;5.404;2023-03-01T08:59:58;103239.41;;;1.50;86.84
75414;BME280;64758;52.122;5.404;2023-03-01T09:02:24;103243.03;;;1.66;85.91
75414;BME280;64758;52.122;5.404;2023-03-01T09:04:51;103234.47;;;1.81;85.16
75414;BME280;64758;52.122;5.404;2023-03-01T09:07:17;103234.59;;;1.97;84.61
75414;BME280;64758;52.122;5.404;2023-03-01T09:09:44;103226.00;;;2.12;83.52
75414;BME280;64758;52.122;5.404;2023-03-01T09:12:10;103220.09;;;2.25;83.28
75414;BME280;64758;52.122;5.404;2023-03-01T09:14:37;103219.41;;;2.39;82.09
75414;BME280;64758;52.122;5.404;2023-03-01T09:17:05;103211.72;;;2.52;81.34
75414;BME280;64758;52.122;5.404;2023-03-01T09:19:31;103218.66;;;2.70;79.93
75414;BME280;64758;52.122;5.404;2023-03-01T09:21:58;103216.41;;;2.80;79.26
75414;BME280;64758;52.122;5.404;2023-03-01T09:24:25;103209.06;;;2.86;78.02
75414;BME280;64758;52.122;5.404;2023-03-01T09:26:55;103209.22;;;3.00;78.11
75414;BME280;64758;52.122;5.404;2023-03-01T09:29:23;103199.00;;;3.11;77.89
75414;BME280;64758;52.122;5.404;2023-03-01T09:31:49;103191.91;;;3.29;76.97
75414;BME280;64758;52.122;5.404;2023-03-01T09:34:16;103196.66;;;3.38;75.69
75414;BME280;64758;52.122;5.404;2023-03-01T09:36:45;103196.09;;;3.48;75.60
75414;BME280;64758;52.122;5.404;2023-03-01T09:39:12;103180.59;;;3.59;74.73
75414;BME280;64758;52.122;5.404;2023-03-01T09:46:59;103178.97;;;3.87;72.92
75414;BME280;64758;52.122;5.404;2023-03-01T09:49:29;103172.34;;;3.96;71.95
75414;BME280;64758;52.122;5.404;2023-03-01T09:54:26;103172.41;;;4.10;71.17
75414;BME280;64758;52.122;5.404;2023-03-01T09:59:30;103180.34;;;4.24;70.58
75414;BME280;64758;52.122;5.404;2023-03-01T10:05:48;103184.41;;;4.59;68.84
75414;BME280;64758;52.122;5.404;2023-03-01T10:08:56;103184.31;;;4.60;67.76
75414;BME280;64758;52.122;5.404;2023-03-01T10:11:31;103178.56;;;4.54;66.82
75414;BME280;64758;52.122;5.404;2023-03-01T10:17:03;103178.22;;;4.60;65.58
75414;BME280;64758;52.122;5.404;2023-03-01T10:19:33;103172.28;;;4.56;63.71
75414;BME280;64758;52.122;5.404;2023-03-01T10:22:11;103166.94;;;4.72;64.73
75414;BME280;64758;52.122;5.404;2023-03-01T10:24:39;103176.56;;;4.87;64.56
75414;BME280;64758;52.122;5.404;2023-03-01T10:27:17;103166.41;;;4.81;64.51
75414;BME280;64758;52.122;5.404;2023-03-01T10:29:58;103164.16;;;4.89;64.29
75414;BME280;64758;52.122;5.404;2023-03-01T10:32:28;103169.22;;;4.92;63.95
75414;BME280;64758;52.122;5.404;2023-03-01T10:34:55;103159.19;;;4.98;63.66
75414;BME280;64758;52.122;5.404;2023-03-01T10:37:23;103173.38;;;5.09;63.83
75414;BME280;64758;52.122;5.404;2023-03-01T10:40:06;103166.88;;;5.15;62.97
75414;BME280;64758;52.122;5.404;2023-03-01T10:42:47;103157.66;;;5.22;62.75
75414;BME280;64758;52.122;5.404;2023-03-01T10:50:42;103120.00;;;5.34;60.99
75414;BME280;64758;52.122;5.404;2023-03-01T10:53:41;103128.75;;;5.48;60.51
75414;BME280;64758;52.122;5.404;2023-03-01T10:56:12;103117.50;;;5.59;59.45
75414;BME280;64758;52.122;5.404;2023-03-01T10:58:56;103117.78;;;5.68;59.40
75414;BME280;64758;52.122;5.404;2023-03-01T11:06:38;103092.28;;;5.95;57.72
75414;BME280;64758;52.122;5.404;2023-03-01T11:09:23;103100.28;;;5.94;57.92
75414;BME280;64758;52.122;5.404;2023-03-01T11:11:53;103099.03;;;5.99;57.98
75414;BME280;64758;52.122;5.404;2023-03-01T11:14:29;103096.22;;;6.15;57.53
75414;BME280;64758;52.122;5.404;2023-03-01T11:17:05;103099.59;;;6.17;56.23
75414;BME280;64758;52.122;5.404;2023-03-01T11:19:38;103085.78;;;6.13;56.44
75414;BME280;64758;52.122;5.404;2023-03-01T11:22:12;103088.28;;;6.15;57.19
75414;BME280;64758;52.122;5.404;2023-03-01T11:24:42;103078.34;;;6.06;56.41
75414;BME280;64758;52.122;5.404;2023-03-01T11:27:26;103071.72;;;6.13;56.90
75414;BME280;64758;52.122;5.404;2023-03-01T11:30:12;103080.09;;;6.19;55.96
75414;BME280;64758;52.122;5.404;2023-03-01T11:32:43;103075.22;;;6.13;55.05
75414;BME280;64758;52.122;5.404;2023-03-01T11:35:22;103081.75;;;6.08;54.50
75414;BME280;64758;52.122;5.404;2023-03-01T11:38:03;103078.81;;;6.12;54.26
75414;BME280;64758;52.122;5.404;2023-03-01T11:40:40;103073.22;;;6.17;55.10
75414;BME280;64758;52.122;5.404;2023-03-01T11:43:23;103073.00;;;6.20;55.00
75414;BME280;64758;52.122;5.404;2023-03-01T11:48:46;103078.84;;;6.37;52.88
75414;BME280;64758;52.122;5.404;2023-03-01T11:51:38;103078.41;;;6.30;53.06
75414;BME280;64758;52.122;5.404;2023-03-01T11:57:20;103063.41;;;6.43;53.45
75414;BME280;64758;52.122;5.404;2023-03-01T12:08:38;103050.09;;;6.70;52.09
75414;BME280;64758;52.122;5.404;2023-03-01T12:50:04;103021.19;;;7.40;49.92
75414;BME280;64758;52.122;5.404;2023-03-01T12:52:39;103012.09;;;7.32;48.93
75414;BME280;64758;52.122;5.404;2023-03-01T12:55:26;103003.44;;;7.30;49.97
75414;BME280;64758;52.122;5.404;2023-03-01T12:58:24;102998.56;;;7.36;50.02
75414;BME280;64758;52.122;5.404;2023-03-01T13:09:30;102982.47;;;7.39;49.68
75414;BME280;64758;52.122;5.404;2023-03-01T13:11:57;102969.88;;;7.43;50.10
75414;BME280;64758;52.122;5.404;2023-03-01T13:16:52;102965.38;;;7.66;48.44
75414;BME280;64758;52.122;5.404;2023-03-01T13:19:23;102971.13;;;7.60;47.70
75414;BME280;64758;52.122;5.404;2023-03-01T13:21:53;102972.00;;;7.61;48.23
75414;BME280;64758;52.122;5.404;2023-03-01T13:24:28;102959.00;;;7.58;48.86
75414;BME280;64758;52.122;5.404;2023-03-01T13:29:54;102952.88;;;7.68;49.01
75414;BME280;64758;52.122;5.404;2023-03-01T13:32:29;102959.00;;;7.69;47.90
75414;BME280;64758;52.122;5.404;2023-03-01T13:37:46;102931.38;;;7.73;48.21
75414;BME280;64758;52.122;5.404;2023-03-01T13:42:48;102948.53;;;7.56;48.03
75414;BME280;64758;52.122;5.404;2023-03-01T13:45:42;102937.34;;;7.53;49.04
75414;BME280;64758;52.122;5.404;2023-03-01T13:48:10;102933.38;;;7.58;48.59
75414;BME280;64758;52.122;5.404;2023-03-01T13:50:58;102922.81;;;7.58;47.89
75414;BME280;64758;52.122;5.404;2023-03-01T13:53:26;102930.28;;;7.64;47.88
75414;BME280;64758;52.122;5.404;2023-03-01T13:55:59;102928.38;;;7.66;47.34
75414;BME280;64758;52.122;5.404;2023-03-01T13:58:29;102914.94;;;7.80;48.76
75414;BME280;64758;52.122;5.404;2023-03-01T14:01:07;102905.56;;;7.87;47.39
75414;BME280;64758;52.122;5.404;2023-03-01T14:03:46;102910.84;;;7.87;47.57
75414;BME280;64758;52.122;5.404;2023-03-01T14:06:15;102908.22;;;7.87;47.84
75414;BME280;64758;52.122;5.404;2023-03-01T14:08:48;102900.28;;;7.87;45.97
75414;BME280;64758;52.122;5.404;2023-03-01T14:11:40;102903.88;;;7.86;47.48
75414;BME280;64758;52.122;5.404;2023-03-01T14:19:34;102883.78;;;8.06;45.00
75414;BME280;64758;52.122;5.404;2023-03-01T14:24:33;102860.94;;;8.16;46.67
75414;BME280;64758;52.122;5.404;2023-03-01T14:27:01;102866.38;;;8.36;45.39
75414;BME280;64758;52.122;5.404;2023-03-01T14:29:36;102860.22;;;8.47;44.34
75414;BME280;64758;52.122;5.404;2023-03-01T14:32:10;102859.38;;;8.57;44.60
75414;BME280;64758;52.122;5.404;2023-03-01T14:34:43;102852.59;;;8.75;43.98
75414;BME280;64758;52.122;5.404;2023-03-01T14:37:11;102846.88;;;8.80;44.46
75414;BME280;64758;52.122;5.404;2023-03-01T14:39:43;102839.88;;;8.89;43.19
75414;BME280;64758;52.122;5.404;2023-03-01T14:42:12;102837.75;;;9.04;43.93
75414;BME280;64758;52.122;5.404;2023-03-01T14:44:46;102830.25;;;9.09;42.65
75414;BME280;64758;52.122;5.404;2023-03-01T14:49:56;102840.84;;;9.09;43.46
75414;BME280;64758;52.122;5.404;2023-03-01T14:52:37;102837.22;;;9.10;42.26
75414;BME280;64758;52.122;5.404;2023-03-01T14:55:41;102841.41;;;9.23;44.26
75414;BME280;64758;52.122;5.404;2023-03-01T14:58:17;102839.47;;;9.25;44.58
75414;BME280;64758;52.122;5.404;2023-03-01T15:00:53;102842.03;;;9.16;44.25
75414;BME280;64758;52.122;5.404;2023-03-01T15:03:36;102842.47;;;9.21;44.14
75414;BME280;64758;52.122;5.404;2023-03-01T15:06:06;102839.06;;;9.30;42.78
75414;BME280;64758;52.122;5.404;2023-03-01T15:08:33;102826.16;;;9.36;43.96
75414;BME280;64758;52.122;5.404;2023-03-01T15:11:03;102827.78;;;9.78;43.40
75414;BME280;64758;52.122;5.404;2023-03-01T15:13:35;102819.31;;;10.23;41.98